Station: Naracoorte

  Atmospheric Gas Attenuation - ITU Rec 676-11   --------------- db/100km ---------------
Date Time Temp RH % AH g/m3 Dew Point Wind Direction Speed kph Gust kph Barometer mB Rainfall Since 9am 24GHz 47GHz 76GHz 122GHz 134GHz 241GHz
27 13:40 14.7 55 6.92 5.8 7 9 1025.6 0 16.0 23.5 33.4 87.2 76.8 262.9
27 13:30 15.1 60 7.74 7.4 9 17 1025.7 0 17.7 24.6 36.3 95.0 86.7 297.5
27 13:20 14.3 56 6.88 5.7 13 15 1025.7 0 15.9 23.5 33.4 87.2 76.7 262.5
27 13:10 15.4 59 7.75 7.4 13 15 1025.8 0 17.7 24.6 36.2 94.8 86.5 296.9
27 13:00 15.6 60 7.98 7.9 7 15 1025.9 0 18.2 24.9 37.0 96.9 89.2 306.4
27 12:50 14.9 60 7.65 7.2 11 13 1026 0 17.5 24.6 36.1 94.4 85.8 294.3
27 12:40 14.7 61 7.68 7.3 11 13 1026.2 0 17.6 24.7 36.3 95.0 86.4 296.5
27 12:30 14.6 63 7.88 7.6 9 13 1026.4 0 18.0 25.0 37.1 97.2 89.1 305.9
27 12:20 13.8 66 7.86 7.6 7 9 1026.5 0 18.0 25.2 37.4 98.0 89.8 308.1
27 12:10 13.4 66 7.67 7.2 11 13 1026.6 0 17.6 25.0 36.9 96.5 87.8 301.0
27 12:00 13.7 64 7.58 7 4 15 1026.7 0 17.4 24.8 36.4 95.2 86.3 295.8
27 11:50 14.1 62 7.52 6.9 0 0 1026.8 0 17.3 24.6 36.0 94.1 85.1 291.7
27 11:40 13.7 65 7.7 7.2 4 7 1026.9 0 17.7 25.0 36.9 96.4 87.8 301.3
27 11:30 13.8 67 7.98 7.8 2 11 1027 0 18.3 25.4 37.9 99.3 91.4 313.7
27 11:20 13.3 65 7.51 6.9 2 6 1027 0 17.3 24.8 36.3 94.9 85.8 294.2
27 11:10 13 66 7.49 6.8 4 7 1027.1 0 17.2 24.9 36.4 95.1 85.9 294.5
27 11:00 13.2 67 7.69 7.2 9 17 1027.1 0 17.7 25.1 37.1 97.0 88.3 302.8
27 10:50 13.8 74 8.82 9.3 15 19 1027.2 0 20.0 26.8 41.3 108.3 102.5 352.6
27 10:40 12.9 72 8.12 8 4 6 1027.2 0 18.6 25.9 38.9 101.9 94.3 323.8
27 10:30 12.6 72 7.97 7.7 7 13 1027.3 0 18.3 25.7 38.5 100.7 92.7 318.1
27 10:20 12.5 73 8.03 7.8 9 13 1027.4 0 18.4 25.9 38.8 101.5 93.6 321.3
27 10:10 11.8 75 7.89 7.5 9 11 1027.4 0 18.2 25.9 38.5 100.9 92.6 317.6
27 10:00 11.7 80 8.37 8.4 9 15 1027.4 0 19.2 26.7 40.6 106.3 99.2 340.7
27 09:50 11.6 81 8.42 8.5 11 13 1027.4 0 19.3 26.8 40.8 106.9 100.0 343.5
27 09:40 11.8 82 8.63 8.8 6 7 1027.4 0 19.7 27.1 41.6 109.0 102.6 352.7
27 09:30 11.8 87 9.16 9.7 6 9 1027.4 0 20.9 28.0 43.8 115.0 109.9 378.4
27 09:20 10.9 88 8.75 9 7 9 1027.4 0 20.0 27.6 42.6 111.6 105.5 362.6
27 09:10 10.6 91 8.88 9.2 9 13 1027.4 0 20.3 27.9 43.3 113.5 107.7 370.4
27 09:00 10.5 92 8.92 9.3 7 11 1027.3 0 20.4 28.0 43.5 114.1 108.4 372.8
27 08:50 10.2 92 8.76 9 13 15 1027.3 0.4 20.1 27.8 43.0 112.7 106.6 366.4
27 08:40 10.4 94 9.06 9.5 11 11 1027.1 0.4 20.7 28.2 44.2 115.9 110.5 380.2
27 08:30 10.3 95 9.1 9.5 4 11 1027 0.4 20.8 28.3 44.4 116.5 111.2 382.7
27 08:20 9.4 95 8.59 8.6 0 2 1027 0.4 19.8 27.7 42.7 111.9 105.2 361.6
27 08:10 9.4 95 8.59 8.6 6 7 1026.9 0.4 19.8 27.7 42.7 111.9 105.2 361.6
27 08:00 9.1 95 8.43 8.3 9 17 1026.8 0.4 19.4 27.6 42.2 110.5 103.4 355.0
27 07:50 9 95 8.38 8.2 7 9 1026.7 0.4 19.3 27.5 42.0 110.0 102.8 353.0
27 07:40 8.8 95 8.27 8 4 6 1026.5 0.4 19.1 27.4 41.6 109.0 101.5 348.4
27 07:30 8.4 95 8.06 7.6 6 7 1026.4 0.4 18.7 27.1 40.9 107.2 99.0 339.8
27 07:20 8.3 96 8.09 7.7 7 9 1026.2 0.4 18.7 27.2 41.1 107.6 99.6 341.7
27 07:10 8.1 96 7.99 7.5 7 7 1026.1 0.4 18.5 27.1 40.8 106.8 98.4 337.6
27 07:00 7.7 95 7.71 7 4 9 1025.9 0.4 18.0 26.7 39.8 104.1 95.0 325.4
27 06:50 7.4 96 7.64 6.8 0 0 1025.8 0.4 17.8 26.7 39.6 103.7 94.3 323.2
27 06:40 7.1 95 7.41 6.4 0 0 1025.6 0.2 17.3 26.4 38.8 101.4 91.5 313.1
27 06:30 6.8 95 7.27 6.1 2 6 1025.4 0.2 17.0 26.2 38.3 100.2 89.8 307.4
27 06:20 6.5 96 7.2 5.9 6 7 1025.2 0.2 16.9 26.2 38.2 99.8 89.2 305.1
27 06:10 6.3 95 7.04 5.6 6 7 1025.1 0.2 16.6 26.0 37.6 98.2 87.2 298.1
27 06:00 6.4 95 7.08 5.7 7 9 1024.9 0.2 16.7 26.0 37.7 98.5 87.6 299.6
27 05:50 6.3 96 7.11 5.7 6 7 1024.8 0.2 16.7 26.1 37.9 99.0 88.2 301.4
27 05:40 6.1 95 6.94 5.4 7 7 1024.6 0.2 16.4 25.8 37.2 97.3 86.0 293.8
27 05:30 6.2 95 6.99 5.5 7 9 1024.4 0.2 16.5 25.9 37.4 97.7 86.6 295.8
27 05:10 6.2 95 6.99 5.5 6 7 1024.2 0.2 16.5 25.9 37.4 97.7 86.5 295.8
27 04:40 5.9 95 6.85 5.2 7 7 1023.8 0.2 16.2 25.7 36.9 96.5 84.9 290.0
27 04:30 5.8 95 6.81 5.1 7 9 1023.6 0.2 16.1 25.6 36.8 96.1 84.5 288.4
27 04:20 5.8 95 6.81 5.1 9 9 1023.5 0.2 16.1 25.6 36.8 96.1 84.4 288.4
27 04:10 5.8 95 6.81 5.1 7 9 1023.4 0.2 16.1 25.6 36.8 96.1 84.4 288.4
27 04:00 5.6 95 6.72 4.9 6 7 1023.3 0.2 15.9 25.5 36.5 95.3 83.4 284.7
27 03:50 5.5 95 6.68 4.8 7 7 1023.2 0.2 15.8 25.5 36.3 95.0 82.9 283.1
27 03:40 5.6 95 6.72 4.9 7 9 1023.1 0.2 15.9 25.5 36.5 95.3 83.4 284.6
27 03:30 5.7 95 6.76 5 7 7 1023.1 0.2 16.0 25.6 36.6 95.6 83.8 286.2
27 03:20 5.7 95 6.76 5 6 7 1023 0.2 16.0 25.6 36.6 95.6 83.8 286.2
27 03:10 5.8 95 6.81 5.1 7 9 1022.9 0.2 16.1 25.6 36.7 96.1 84.4 288.2
27 03:00 6.2 95 6.99 5.5 6 7 1022.9 0.2 16.5 25.8 37.3 97.6 86.5 295.5
27 02:50 6.2 95 6.99 5.5 7 7 1022.8 0.2 16.5 25.8 37.3 97.6 86.4 295.5
27 02:40 6.2 95 6.99 5.5 6 7 1022.8 0.2 16.5 25.8 37.3 97.6 86.4 295.5
27 02:30 6.1 95 6.94 5.4 6 7 1022.9 0.2 16.4 25.8 37.1 97.1 85.9 293.4
27 02:20 5.9 95 6.85 5.2 4 6 1022.9 0.2 16.2 25.7 36.9 96.4 84.8 289.8
27 02:10 5.7 95 6.76 5 11 13 1022.9 0.2 16.0 25.6 36.6 95.6 83.8 286.2
27 02:00 5.9 95 6.85 5.2 7 9 1022.8 0.2 16.2 25.7 36.9 96.4 84.8 289.8
27 01:50 6.1 95 6.94 5.4 7 9 1022.8 0.2 16.4 25.7 37.1 97.1 85.9 293.4
27 01:40 6.1 95 6.94 5.4 6 6 1022.8 0.2 16.4 25.7 37.1 97.1 85.9 293.4
27 01:30 5.9 95 6.85 5.2 6 7 1022.8 0.2 16.2 25.7 36.9 96.4 84.8 289.8
27 01:20 6 95 6.9 5.3 6 7 1022.8 0.2 16.3 25.7 37.0 96.8 85.4 291.8
27 01:10 6.1 95 6.94 5.4 6 6 1022.9 0.2 16.4 25.8 37.1 97.1 85.9 293.4
27 01:00 5.9 95 6.85 5.2 7 9 1022.9 0.2 16.2 25.7 36.9 96.4 84.8 289.8
27 00:50 6 94 6.83 5.1 7 7 1022.9 0.2 16.1 25.6 36.7 96.0 84.5 288.5
27 00:40 6.1 94 6.87 5.2 9 11 1023 0.2 16.2 25.6 36.9 96.4 84.9 290.1
27 00:30 6.1 94 6.87 5.2 9 11 1023 0.2 16.2 25.6 36.9 96.4 84.9 290.1
27 00:20 6.3 94 6.96 5.4 11 11 1022.9 0.2 16.4 25.7 37.1 97.1 85.9 293.6
27 00:10 6.4 94 7.01 5.5 9 9 1022.9 0.2 16.5 25.8 37.3 97.6 86.5 295.7
27 00:00 6 94 6.83 5.1 0 0 1023 0.2 16.1 25.6 36.7 96.0 84.5 288.5
26 23:50 6.1 94 6.87 5.2 0 0 1023 0.2 16.2 25.6 36.9 96.4 84.9 290.1
26 23:40 5.6 94 6.65 4.7 0 0 1023 0.2 15.8 25.4 36.2 94.5 82.4 281.2
26 23:30 5.7 92 6.55 4.5 6 9 1023 0.2 15.5 25.2 35.7 93.3 80.9 276.0
26 23:20 6.3 93 6.89 5.3 9 9 1023 0.2 16.3 25.6 36.8 96.3 85.0 290.3
26 23:10 6.2 93 6.84 5.2 11 11 1023 0.2 16.1 25.6 36.7 95.9 84.4 288.2
26 23:00 6.5 92 6.9 5.3 11 13 1023 0.2 16.3 25.6 36.8 96.2 84.9 290.0
26 22:50 6.9 92 7.09 5.7 9 11 1023 0.2 16.7 25.8 37.4 97.8 87.1 297.7
26 22:40 7.5 92 7.37 6.3 11 11 1023 0.2 17.2 26.1 38.3 100.2 90.2 308.9
26 22:30 7.6 92 7.42 6.4 15 17 1023.1 0.2 17.3 26.1 38.5 100.7 90.8 311.0
26 22:20 7.4 92 7.32 6.2 9 11 1023.1 0.2 17.1 26.0 38.1 99.8 89.7 306.9
26 22:10 7.4 92 7.32 6.2 9 11 1023 0.2 17.1 26.0 38.1 99.8 89.7 306.9
26 22:00 7.4 91 7.24 6 11 13 1023 0.2 17.0 25.9 37.8 98.9 88.6 303.0
26 21:50 7.5 91 7.29 6.1 11 13 1023.1 0.2 17.1 25.9 38.0 99.3 89.1 305.1
26 21:40 7.5 92 7.37 6.3 13 15 1023.1 0.2 17.2 26.1 38.3 100.2 90.2 308.9
26 21:30 6.9 92 7.09 5.7 11 13 1023.1 0.2 16.7 25.8 37.4 97.8 87.1 297.7
26 21:20 6.3 91 6.74 4.9 13 13 1023 0.2 15.9 25.4 36.2 94.7 82.9 283.0
26 21:10 6.2 91 6.7 4.8 13 13 1022.9 0.2 15.8 25.3 36.1 94.3 82.4 281.5
26 21:00 5.7 90 6.41 4.2 15 15 1022.8 0.2 15.2 25.0 35.1 91.7 79.0 269.3
26 20:50 5.8 90 6.45 4.3 15 15 1022.8 0.2 15.3 25.0 35.2 92.0 79.4 270.9
26 20:40 5.8 89 6.38 4.1 13 15 1022.7 0.2 15.2 24.9 34.9 91.2 78.5 267.5

Last Refresh: 27-Sep-2020 13:44:16

Most of the information presented on this site is sourced from the Bureau of Meteorology.  Copyright in all material sourced from the Bureau of Meteorology resides with the Commonwealth of Australia.